Time;durP1;ratioP1;P1;durP2;ratioP2;P2;SDS_P1;SDS_P2;PMS_P1;PMS_P2;Temp;Humidity;BMP_temperature;BMP_pressure;BME280_temperature;BME280_humidity;BME280_pressure;Samples;Min_cycle;Max_cycle;Signal;HPM_P1;HPM_P2
2022/01/24 00:00:49;;;;;;;4.67;2.37;;;5.00;99.90;;;;;;7389221;19;20320;-79
2022/01/24 00:03:22;;;;;;;2.05;1.85;;;4.90;99.90;;;;;;7388682;19;20369;-83
2022/01/24 00:05:48;;;;;;;2.22;2.03;;;5.00;99.90;;;;;;7389377;19;20315;-81
2022/01/24 00:08:13;;;;;;;2.20;2.00;;;5.00;99.90;;;;;;7389620;19;20316;-79
2022/01/24 00:10:40;;;;;;;2.00;1.90;;;4.90;99.90;;;;;;7385654;19;20665;-78
2022/01/24 00:16:01;;;;;;;2.65;2.45;;;5.00;99.90;;;;;;7387276;19;20698;-78
2022/01/24 00:18:31;;;;;;;2.08;1.88;;;4.90;99.90;;;;;;7387376;19;20388;-81
2022/01/24 00:26:46;;;;;;;2.30;2.10;;;4.80;99.90;;;;;;7384596;19;20309;-79
2022/01/24 00:29:14;;;;;;;2.60;2.40;;;4.70;99.90;;;;;;7285957;19;2004392;-77
2022/01/24 00:31:39;;;;;;;2.60;2.40;;;4.70;99.90;;;;;;7383839;19;20315;-78
2022/01/24 00:34:05;;;;;;;2.77;2.40;;;4.80;99.90;;;;;;7385288;19;20309;-79
2022/01/24 00:36:31;;;;;;;2.58;2.30;;;4.80;99.90;;;;;;7387984;19;20322;-79
2022/01/24 00:38:57;;;;;;;2.05;1.85;;;4.80;99.90;;;;;;7384011;19;20957;-79
2022/01/24 00:41:23;;;;;;;1.93;1.77;;;4.80;99.90;;;;;;7386395;19;20296;-79
2022/01/24 00:46:36;;;;;;;1.83;1.70;;;4.70;99.90;;;;;;7383660;19;20384;-79
2022/01/24 00:56:56;;;;;;;2.03;1.90;;;4.70;99.90;;;;;;7383177;19;20337;-78
2022/01/24 00:59:22;;;;;;;1.95;1.80;;;4.70;99.90;;;;;;7382485;19;20726;-78
2022/01/24 01:01:47;;;;;;;1.83;1.73;;;4.60;99.90;;;;;;7384725;19;20317;-78
2022/01/24 01:04:14;;;;;;;2.00;1.90;;;4.60;99.90;;;;;;7364949;19;20976;-79
2022/01/24 01:06:43;;;;;;;1.48;1.38;;;4.60;99.90;;;;;;7382416;19;20335;-79
2022/01/24 01:20:06;;;;;;;1.50;1.40;;;4.60;99.90;;;;;;7381358;19;20829;-79
2022/01/24 01:22:31;;;;;;;1.42;1.33;;;4.50;99.90;;;;;;7384441;19;20318;-81
2022/01/24 01:24:57;;;;;;;1.37;1.27;;;4.70;99.90;;;;;;7387056;19;20347;-79
2022/01/24 01:27:32;;;;;;;1.50;1.40;;;4.70;99.90;;;;;;7384398;19;20673;-80
2022/01/24 01:30:07;;;;;;;1.40;1.30;;;4.50;99.90;;;;;;7383959;19;20315;-79
2022/01/24 01:35:20;;;;;;;1.42;1.33;;;4.40;99.90;;;;;;7381825;19;20656;-80
2022/01/24 01:38:02;;;;;;;1.40;1.30;;;4.40;99.90;;;;;;7384088;19;20310;-79
2022/01/24 01:56:27;;;;;;;1.30;1.20;;;4.40;99.90;;;;;;7384190;19;20308;-80
2022/01/24 01:58:52;;;;;;;1.20;1.20;;;4.40;99.90;;;;;;7382889;19;20308;-80
2022/01/24 02:01:18;;;;;;;1.40;1.30;;;4.30;99.90;;;;;;7383427;19;20340;-79
2022/01/24 02:03:44;;;;;;;1.50;1.40;;;4.30;99.90;;;;;;7381479;19;20312;-80
2022/01/24 02:06:11;;;;;;;1.10;1.10;;;4.30;99.90;;;;;;7380998;19;20910;-79
2022/01/24 02:08:38;;;;;;;1.38;1.30;;;4.30;99.90;;;;;;7382460;19;20406;-79
2022/01/24 02:11:04;;;;;;;1.08;1.00;;;4.30;99.90;;;;;;7391395;19;20336;-82
2022/01/24 02:13:31;;;;;;;1.00;1.00;;;4.40;99.90;;;;;;7390644;19;20307;-79
2022/01/24 02:21:25;;;;;;;1.08;1.08;;;4.50;99.90;;;;;;7392321;19;20337;-80
2022/01/24 02:23:50;;;;;;;1.20;1.20;;;4.30;99.90;;;;;;7285677;19;2004381;-80
2022/01/24 02:26:20;;;;;;;1.30;1.30;;;4.40;99.90;;;;;;7394551;19;20404;-82
2022/01/24 02:33:48;;;;;;;1.27;1.27;;;4.50;99.90;;;;;;7388933;19;20324;-79
2022/01/24 02:36:21;;;;;;;1.13;1.13;;;4.30;99.90;;;;;;7373748;19;20317;-78
2022/01/24 02:39:06;;;;;;;1.70;1.60;;;4.30;99.90;;;;;;7388977;19;20383;-79
2022/01/24 02:49:32;;;;;;;2.35;2.20;;;4.30;99.90;;;;;;7397972;19;20695;-80
2022/01/24 02:52:09;;;;;;;2.20;2.10;;;4.20;99.90;;;;;;7394232;19;20313;-79
2022/01/24 02:54:36;;;;;;;2.30;2.10;;;4.30;99.90;;;;;;7387312;19;20312;-79
2022/01/24 02:57:02;;;;;;;2.77;2.47;;;4.30;99.90;;;;;;7388686;19;20324;-78
2022/01/24 02:59:28;;;;;;;2.33;2.13;;;4.20;99.90;;;;;;7386340;19;20333;-80
2022/01/24 03:01:53;;;;;;;2.60;2.40;;;4.20;99.90;;;;;;7387831;19;20711;-79
2022/01/24 03:04:19;;;;;;;2.40;2.20;;;4.20;99.90;;;;;;7384930;19;20321;-79
2022/01/24 03:06:45;;;;;;;2.50;2.30;;;4.20;99.90;;;;;;7387438;19;20308;-79
2022/01/24 03:09:11;;;;;;;2.50;2.10;;;4.20;99.90;;;;;;7387731;19;20388;-79
2022/01/24 03:14:22;;;;;;;2.03;1.92;;;4.40;99.90;;;;;;7389080;19;20319;-81
2022/01/24 03:16:48;;;;;;;2.50;2.30;;;4.40;99.90;;;;;;7390312;19;20353;-79
2022/01/24 03:19:14;;;;;;;2.90;2.13;;;4.30;99.90;;;;;;7387078;19;20313;-79
2022/01/24 03:21:42;;;;;;;2.28;2.08;;;4.30;99.90;;;;;;7384842;19;20753;-79
2022/01/24 03:24:08;;;;;;;2.00;1.90;;;4.50;99.90;;;;;;7387018;19;20387;-79
2022/01/24 03:26:33;;;;;;;2.00;1.90;;;4.40;99.90;;;;;;7387851;19;20312;-79
2022/01/24 03:28:59;;;;;;;2.17;1.98;;;4.50;99.90;;;;;;7388555;19;20309;-80
2022/01/24 03:31:25;;;;;;;2.60;2.40;;;4.50;99.90;;;;;;7388115;19;20300;-79
2022/01/24 03:33:50;;;;;;;2.03;1.90;;;4.50;99.90;;;;;;7386679;19;20333;-81
2022/01/24 03:36:16;;;;;;;2.30;2.10;;;4.50;99.90;;;;;;7386298;19;20301;-80
2022/01/24 03:38:42;;;;;;;1.73;1.63;;;4.40;99.90;;;;;;7386093;19;20309;-79
2022/01/24 03:41:07;;;;;;;2.08;1.90;;;4.50;99.90;;;;;;7384879;19;20333;-79
2022/01/24 03:43:34;;;;;;;2.93;2.00;;;4.60;99.90;;;;;;7386498;19;20312;-79
2022/01/24 03:48:40;;;;;;;2.10;2.00;;;4.70;99.90;;;;;;7385512;19;20325;-79
2022/01/24 03:51:06;;;;;;;2.50;2.25;;;4.70;99.90;;;;;;7386322;19;20316;-80
2022/01/24 03:53:32;;;;;;;2.38;2.17;;;4.80;99.90;;;;;;7387534;19;20305;-80
2022/01/24 03:55:57;;;;;;;2.53;2.30;;;4.80;99.90;;;;;;7392063;19;22033;-80
2022/01/24 03:58:23;;;;;;;2.28;2.10;;;4.70;99.90;;;;;;7386396;19;20393;-79
2022/01/24 04:00:49;;;;;;;2.50;2.30;;;4.70;99.90;;;;;;7385403;19;20297;-80
2022/01/24 04:03:14;;;;;;;1.83;1.60;;;4.80;99.90;;;;;;7387301;19;20372;-79
2022/01/24 04:05:41;;;;;;;3.03;2.00;;;4.70;99.90;;;;;;7385683;19;20728;-81
2022/01/24 04:08:07;;;;;;;2.10;2.00;;;4.70;99.90;;;;;;7385621;19;20336;-80
2022/01/24 04:10:41;;;;;;;2.28;2.08;;;4.80;99.90;;;;;;7386953;19;20313;-79
2022/01/24 04:13:20;;;;;;;2.70;2.00;;;4.90;99.90;;;;;;7384132;19;20325;-79
2022/01/24 04:15:59;;;;;;;2.40;2.20;;;5.00;99.90;;;;;;7386368;19;20309;-81
2022/01/24 04:18:38;;;;;;;1.98;1.88;;;4.80;99.90;;;;;;7384443;19;20325;-79
2022/01/24 04:21:20;;;;;;;2.05;1.92;;;4.90;99.90;;;;;;7370981;19;20360;-80
2022/01/24 04:23:50;;;;;;;2.78;2.58;;;4.80;99.90;;;;;;7389117;19;20305;-80
2022/01/24 04:26:16;;;;;;;2.75;2.50;;;5.00;99.90;;;;;;7389269;19;20304;-81
2022/01/24 04:28:42;;;;;;;2.60;2.40;;;4.90;99.90;;;;;;7390158;19;20836;-79
2022/01/24 04:31:07;;;;;;;2.60;2.40;;;4.70;99.90;;;;;;7385224;19;21210;-80
2022/01/24 04:33:33;;;;;;;2.33;2.13;;;4.60;99.90;;;;;;7383404;19;20317;-79
2022/01/24 04:35:59;;;;;;;2.63;2.33;;;4.60;99.90;;;;;;7386088;19;20309;-80
2022/01/24 04:38:25;;;;;;;2.22;2.03;;;4.60;99.90;;;;;;7382300;19;20362;-80
2022/01/24 04:40:56;;;;;;;2.37;2.17;;;4.60;99.90;;;;;;7386797;19;20452;-79
2022/01/24 04:43:52;;;;;;;3.05;2.17;;;4.70;99.90;;;;;;7383454;19;20352;-80
2022/01/24 04:46:18;;;;;;;1.65;1.55;;;4.50;99.90;;;;;;7282666;19;2004288;-80
2022/01/24 04:56:35;;;;;;;2.90;1.70;;;4.60;99.90;;;;;;7283602;19;2007666;-79
2022/01/24 04:59:01;;;;;;;1.83;1.73;;;4.40;99.90;;;;;;7390139;19;20312;-80
2022/01/24 05:01:27;;;;;;;2.67;2.47;;;4.40;99.90;;;;;;7383337;19;20336;-78
2022/01/24 05:03:53;;;;;;;1.92;1.80;;;4.40;99.90;;;;;;7384428;19;20335;-79
2022/01/24 05:06:18;;;;;;;1.50;1.40;;;4.40;99.90;;;;;;7383297;19;20841;-79
2022/01/24 05:08:44;;;;;;;1.90;1.80;;;4.50;99.90;;;;;;7381716;19;20301;-79
2022/01/24 05:11:14;;;;;;;1.70;1.60;;;4.60;99.90;;;;;;7384118;19;20304;-78
2022/01/24 05:24:34;;;;;;;2.50;2.30;;;4.50;99.90;;;;;;7382997;19;20308;-79
2022/01/24 05:27:00;;;;;;;2.47;2.28;;;4.60;99.90;;;;;;7384125;19;20328;-81
2022/01/24 05:29:26;;;;;;;2.70;2.50;;;4.40;99.90;;;;;;7390995;19;20309;-79
2022/01/24 05:31:51;;;;;;;1.80;1.70;;;4.40;99.90;;;;;;7384992;19;20871;-80
2022/01/24 05:34:17;;;;;;;1.77;1.67;;;4.60;99.90;;;;;;7383284;19;20352;-79
2022/01/24 05:36:43;;;;;;;2.20;2.00;;;4.50;99.90;;;;;;7385564;19;20313;-79
2022/01/24 05:39:09;;;;;;;2.20;1.80;;;4.50;99.90;;;;;;7387390;19;20320;-78
2022/01/24 05:41:37;;;;;;;1.75;1.65;;;4.50;99.90;;;;;;7384744;19;20308;-79
2022/01/24 05:44:03;;;;;;;2.42;1.77;;;4.40;99.90;;;;;;7382186;19;20579;-78
2022/01/24 05:46:29;;;;;;;1.73;1.63;;;4.40;99.90;;;;;;7383997;19;20336;-79
2022/01/24 05:48:54;;;;;;;4.38;2.78;;;4.30;99.90;;;;;;7381344;19;20324;-79
2022/01/24 05:51:21;;;;;;;2.55;2.35;;;4.30;99.90;;;;;;7384905;19;20356;-78
2022/01/24 05:53:46;;;;;;;3.65;3.33;;;4.30;99.90;;;;;;7381814;19;20300;-78
2022/01/24 05:56:12;;;;;;;2.50;2.30;;;4.30;99.90;;;;;;7387066;19;20963;-79
2022/01/24 05:58:38;;;;;;;2.50;2.30;;;4.30;99.90;;;;;;7388359;19;20313;-79
2022/01/24 06:01:03;;;;;;;2.13;2.03;;;4.30;99.90;;;;;;7388240;19;20365;-78
2022/01/24 06:03:29;;;;;;;1.77;1.67;;;4.30;99.90;;;;;;7382303;19;20905;-79
2022/01/24 06:05:55;;;;;;;1.90;1.80;;;4.40;99.90;;;;;;7381795;19;20337;-79
2022/01/24 06:08:21;;;;;;;2.00;1.90;;;4.30;99.90;;;;;;7384117;19;20324;-79
2022/01/24 06:10:47;;;;;;;2.38;2.17;;;4.30;99.90;;;;;;7385292;19;20313;-78
2022/01/24 06:13:14;;;;;;;2.17;2.00;;;4.30;99.90;;;;;;7381548;19;20404;-78
2022/01/24 06:15:40;;;;;;;2.25;2.15;;;4.30;99.90;;;;;;7372292;19;20313;-78
2022/01/24 06:18:06;;;;;;;1.90;1.80;;;4.30;99.90;;;;;;7377515;19;20336;-79
2022/01/24 06:20:31;;;;;;;1.80;1.70;;;4.40;99.90;;;;;;7380127;19;20354;-78
2022/01/24 06:22:57;;;;;;;1.70;1.60;;;4.40;99.90;;;;;;7381756;19;20349;-79
2022/01/24 06:25:24;;;;;;;1.70;1.60;;;4.40;99.90;;;;;;7372261;19;20423;-78
2022/01/24 06:27:51;;;;;;;2.03;1.90;;;4.50;99.90;;;;;;7379815;19;20316;-77
2022/01/24 06:30:17;;;;;;;1.75;1.65;;;4.30;99.90;;;;;;7379019;19;20348;-79
2022/01/24 06:32:42;;;;;;;2.00;1.90;;;4.30;99.90;;;;;;7381898;19;20317;-79
2022/01/24 06:35:09;;;;;;;2.45;2.05;;;4.30;99.90;;;;;;7378946;19;20329;-78
2022/01/24 06:37:36;;;;;;;2.40;2.20;;;4.40;99.90;;;;;;7378898;19;20388;-78
2022/01/24 06:40:01;;;;;;;2.50;2.30;;;4.50;99.90;;;;;;7380008;19;20296;-78
2022/01/24 06:42:27;;;;;;;2.42;2.22;;;4.70;99.90;;;;;;7389957;19;20734;-78
2022/01/24 06:44:53;;;;;;;1.90;1.80;;;4.60;99.90;;;;;;7382261;19;20317;-78
2022/01/24 06:47:19;;;;;;;2.63;2.35;;;4.60;99.90;;;;;;7383887;19;20888;-78
2022/01/24 06:49:45;;;;;;;2.10;2.00;;;4.60;99.90;;;;;;7383163;19;20355;-78
2022/01/24 06:52:13;;;;;;;1.70;1.60;;;4.50;99.90;;;;;;7383931;19;20336;-79
2022/01/24 06:54:41;;;;;;;2.05;1.90;;;4.50;99.90;;;;;;7381159;19;20305;-79
2022/01/24 06:57:07;;;;;;;2.20;2.00;;;4.60;99.90;;;;;;7390099;19;20309;-78
2022/01/24 06:59:33;;;;;;;3.40;2.50;;;4.60;99.90;;;;;;7386719;19;20324;-78
2022/01/24 07:01:58;;;;;;;2.30;2.10;;;4.60;99.90;;;;;;7395753;19;20335;-78
2022/01/24 07:04:24;;;;;;;2.40;2.20;;;4.70;99.90;;;;;;7386173;19;20760;-78
2022/01/24 07:06:51;;;;;;;2.35;2.15;;;4.60;99.90;;;;;;7388368;19;20342;-78
2022/01/24 07:09:16;;;;;;;2.42;2.20;;;4.70;99.90;;;;;;7390508;19;20863;-80
2022/01/24 07:11:42;;;;;;;2.53;2.25;;;4.60;99.90;;;;;;7387262;19;20319;-80
2022/01/24 07:14:12;;;;;;;2.40;2.20;;;4.60;99.90;;;;;;7387136;19;20404;-80
2022/01/24 07:19:24;;;;;;;2.53;2.30;;;4.60;99.90;;;;;;7284000;19;2004426;-80
2022/01/24 07:21:49;;;;;;;2.53;2.33;;;4.70;99.90;;;;;;7387832;19;20333;-79
2022/01/24 07:24:15;;;;;;;2.50;2.30;;;4.70;99.90;;;;;;7386267;19;20344;-80
2022/01/24 07:26:41;;;;;;;2.55;2.35;;;4.50;99.90;;;;;;7388644;19;20319;-80
2022/01/24 07:29:06;;;;;;;2.40;2.20;;;4.50;99.90;;;;;;7388456;19;20388;-82
2022/01/24 07:31:32;;;;;;;2.70;2.28;;;4.70;99.90;;;;;;7381106;19;20836;-80
2022/01/24 07:33:58;;;;;;;2.43;2.23;;;4.50;99.90;;;;;;7397221;19;20308;-79
2022/01/24 07:36:24;;;;;;;2.30;2.10;;;4.60;99.90;;;;;;7389159;19;20370;-81
2022/01/24 07:38:50;;;;;;;2.50;2.30;;;4.50;99.90;;;;;;7384990;19;20296;-80
2022/01/24 07:41:22;;;;;;;2.17;2.03;;;4.50;99.90;;;;;;7386541;19;20325;-79
2022/01/24 07:43:48;;;;;;;2.47;2.28;;;4.50;99.90;;;;;;7384379;19;20427;-79
2022/01/24 07:46:13;;;;;;;2.50;2.30;;;4.50;99.90;;;;;;7387360;19;20349;-79
2022/01/24 07:48:39;;;;;;;2.70;2.30;;;4.60;99.90;;;;;;7387012;19;20340;-81
2022/01/24 07:51:05;;;;;;;2.28;2.08;;;4.50;99.90;;;;;;7386502;19;20333;-79
2022/01/24 07:53:30;;;;;;;2.37;2.17;;;4.50;99.90;;;;;;7384811;19;20317;-79
2022/01/24 07:55:57;;;;;;;2.33;2.13;;;4.50;99.90;;;;;;7390028;19;20332;-79
2022/01/24 07:58:23;;;;;;;2.92;2.58;;;4.50;99.90;;;;;;7384824;19;21208;-80
2022/01/24 08:00:48;;;;;;;3.60;2.75;;;4.50;99.90;;;;;;7386261;19;20319;-81
2022/01/24 08:03:15;;;;;;;3.05;2.75;;;4.60;99.90;;;;;;7384036;19;20329;-81
2022/01/24 08:05:40;;;;;;;3.20;2.90;;;4.50;99.90;;;;;;7384099;19;20651;-80
2022/01/24 08:08:06;;;;;;;3.30;3.00;;;4.50;99.90;;;;;;7387370;19;20344;-80
2022/01/24 08:10:32;;;;;;;3.25;2.90;;;4.50;99.90;;;;;;7386459;19;20985;-79
2022/01/24 08:12:58;;;;;;;4.30;3.63;;;4.40;99.90;;;;;;7385344;19;20345;-80
2022/01/24 08:15:24;;;;;;;4.77;4.20;;;4.50;99.90;;;;;;7386323;19;20368;-81
2022/01/24 08:17:49;;;;;;;3.10;2.80;;;4.50;99.90;;;;;;7391689;19;20336;-79
2022/01/24 08:20:15;;;;;;;4.05;3.60;;;4.50;99.90;;;;;;7384109;19;20387;-79
2022/01/24 08:22:42;;;;;;;3.13;2.85;;;4.70;99.90;;;;;;7386832;19;20325;-80
2022/01/24 08:25:08;;;;;;;3.67;3.30;;;4.60;99.90;;;;;;7384986;19;20352;-79
2022/01/24 08:27:34;;;;;;;5.18;4.05;;;4.70;99.90;;;;;;7387282;19;20297;-80
2022/01/24 08:30:01;;;;;;;4.17;3.77;;;4.70;99.90;;;;;;7384403;19;20312;-80
2022/01/24 08:32:26;;;;;;;5.10;4.60;;;4.80;99.90;;;;;;7385242;19;20848;-80
2022/01/24 08:34:52;;;;;;;5.47;4.50;;;4.70;99.90;;;;;;7389695;19;20388;-79
2022/01/24 08:37:18;;;;;;;5.18;4.55;;;4.80;99.90;;;;;;7387262;19;20860;-81
2022/01/24 08:39:44;;;;;;;6.43;4.37;;;4.80;99.90;;;;;;7383705;19;20332;-81
2022/01/24 08:42:16;;;;;;;6.15;5.15;;;4.90;99.90;;;;;;7385831;19;20681;-79
2022/01/24 08:47:30;;;;;;;8.10;5.90;;;4.90;99.90;;;;;;7388164;19;20373;-81
2022/01/24 08:49:56;;;;;;;7.93;5.55;;;5.00;99.90;;;;;;7385457;19;20325;-79
2022/01/24 08:52:22;;;;;;;5.88;5.05;;;5.10;99.90;;;;;;7387879;19;20680;-80
2022/01/24 08:54:48;;;;;;;7.60;5.68;;;5.00;99.90;;;;;;7383205;19;20311;-80
2022/01/24 08:57:13;;;;;;;7.70;6.00;;;5.10;99.90;;;;;;7385276;19;20313;-80
2022/01/24 08:59:42;;;;;;;6.45;5.38;;;5.10;99.90;;;;;;7386878;19;20328;-81
2022/01/24 09:02:09;;;;;;;7.00;5.70;;;5.20;99.90;;;;;;7377841;19;20313;-80
2022/01/24 09:04:35;;;;;;;5.72;5.00;;;5.20;99.90;;;;;;7376120;19;20312;-79
2022/01/24 09:07:04;;;;;;;7.00;5.30;;;5.20;99.90;;;;;;7394286;19;20319;-79
2022/01/24 09:09:31;;;;;;;5.13;4.63;;;5.30;99.90;;;;;;7386981;19;20313;-78
2022/01/24 09:11:57;;;;;;;6.93;6.22;;;5.30;99.90;;;;;;7385098;19;20693;-79
2022/01/24 09:14:23;;;;;;;9.23;5.95;;;5.40;99.90;;;;;;7383684;19;20368;-78
2022/01/24 09:16:48;;;;;;;6.33;5.43;;;5.30;99.90;;;;;;7373864;19;21041;-78
2022/01/24 09:19:14;;;;;;;5.20;4.18;;;5.30;99.90;;;;;;7380683;19;20384;-79
2022/01/24 09:21:40;;;;;;;4.97;3.67;;;5.40;99.90;;;;;;7385634;19;20844;-78
2022/01/24 09:24:06;;;;;;;4.30;3.70;;;5.50;99.90;;;;;;7381895;19;20336;-78
2022/01/24 09:26:32;;;;;;;4.78;3.95;;;5.50;99.90;;;;;;7385335;19;20320;-78
2022/01/24 09:28:57;;;;;;;5.95;3.95;;;5.70;99.90;;;;;;7382806;19;20333;-77
2022/01/24 09:31:23;;;;;;;3.53;3.20;;;5.50;99.90;;;;;;7382683;19;20312;-78
2022/01/24 09:33:50;;;;;;;5.23;3.67;;;5.60;99.90;;;;;;7381681;19;20335;-77
2022/01/24 09:36:16;;;;;;;4.28;3.75;;;5.60;99.90;;;;;;7382888;19;20309;-79
2022/01/24 09:38:41;;;;;;;4.47;3.97;;;5.60;99.90;;;;;;7388383;19;20312;-77
2022/01/24 09:41:08;;;;;;;4.18;3.78;;;5.80;99.90;;;;;;7382212;19;20448;-78
2022/01/24 09:43:33;;;;;;;3.60;3.30;;;5.60;99.90;;;;;;7381620;19;20377;-78
2022/01/24 09:45:59;;;;;;;5.68;4.20;;;5.60;99.90;;;;;;7383260;19;20891;-78
2022/01/24 09:48:25;;;;;;;4.00;3.60;;;5.60;99.90;;;;;;7382282;19;20313;-78
2022/01/24 09:50:52;;;;;;;5.40;3.90;;;5.70;99.90;;;;;;7385029;19;20331;-78
2022/01/24 09:53:22;;;;;;;4.80;4.28;;;5.80;99.90;;;;;;7383676;19;20375;-77
2022/01/24 09:55:47;;;;;;;4.43;4.03;;;5.70;99.90;;;;;;7384858;19;20333;-79
2022/01/24 09:58:14;;;;;;;4.50;4.10;;;5.70;99.90;;;;;;7382547;19;21191;-77
2022/01/24 10:00:40;;;;;;;4.63;4.23;;;5.90;99.90;;;;;;7384674;19;20332;-78
2022/01/24 10:03:07;;;;;;;4.23;3.60;;;5.70;99.90;;;;;;7383604;19;20901;-77
2022/01/24 10:05:37;;;;;;;3.72;3.42;;;5.90;99.90;;;;;;7388003;19;20380;-79
2022/01/24 10:08:05;;;;;;;6.30;4.93;;;5.90;99.90;;;;;;7391859;19;20301;-78
2022/01/24 10:10:44;;;;;;;5.25;4.43;;;5.90;99.90;;;;;;7384107;19;20386;-78
2022/01/24 10:16:43;;;;;;;3.92;3.53;;;6.00;99.90;;;;;;7281147;19;2007203;-78
2022/01/24 10:19:15;;;;;;;3.45;3.15;;;6.10;99.90;;;;;;7382296;19;20317;-78
2022/01/24 10:21:45;;;;;;;2.90;2.70;;;6.20;99.90;;;;;;7385527;19;20710;-77
2022/01/24 10:24:13;;;;;;;4.17;3.57;;;6.20;99.90;;;;;;7382627;19;20353;-78
2022/01/24 10:26:39;;;;;;;4.87;4.30;;;6.10;99.90;;;;;;7381988;19;20313;-77
2022/01/24 10:29:12;;;;;;;3.90;3.50;;;6.00;99.90;;;;;;7381752;19;20428;-78
2022/01/24 10:31:44;;;;;;;3.13;2.83;;;6.00;99.90;;;;;;7388172;19;20321;-79
2022/01/24 10:34:22;;;;;;;2.65;2.45;;;6.00;99.90;;;;;;7388531;19;20336;-79
2022/01/24 10:36:50;;;;;;;3.33;2.85;;;6.10;99.90;;;;;;7392579;19;20320;-79
2022/01/24 10:39:21;;;;;;;2.70;2.50;;;6.10;99.90;;;;;;7402741;19;20331;-79
2022/01/24 10:44:26;;;;;;;2.45;2.25;;;6.20;99.90;;;;;;7390424;19;20332;-78
2022/01/24 10:46:52;;;;;;;2.30;2.10;;;6.30;99.90;;;;;;7391106;19;20336;-78
2022/01/24 10:49:17;;;;;;;2.07;1.97;;;6.50;99.90;;;;;;7388449;19;20328;-78
2022/01/24 10:51:44;;;;;;;2.28;2.08;;;6.40;99.90;;;;;;7388314;19;20324;-78
2022/01/24 10:54:10;;;;;;;1.70;1.50;;;6.50;99.90;;;;;;7386881;19;20333;-78
2022/01/24 10:56:43;;;;;;;2.42;2.22;;;6.50;99.90;;;;;;7391515;19;20388;-77
2022/01/24 10:59:12;;;;;;;2.40;2.20;;;6.50;99.90;;;;;;7388886;19;20333;-77
2022/01/24 11:01:38;;;;;;;1.95;1.85;;;6.50;99.90;;;;;;7391439;19;20308;-78
2022/01/24 11:04:06;;;;;;;1.90;1.80;;;6.60;99.90;;;;;;7387752;19;20357;-79
2022/01/24 11:06:37;;;;;;;1.67;1.58;;;6.60;99.90;;;;;;7390526;19;20300;-77
2022/01/24 11:09:24;;;;;;;2.17;2.08;;;6.60;99.90;;;;;;7387465;19;20343;-77
2022/01/24 11:11:51;;;;;;;2.20;2.00;;;6.60;99.90;;;;;;7292164;19;2005281;-79
2022/01/24 11:14:19;;;;;;;2.10;1.85;;;6.60;99.90;;;;;;7385448;19;20895;-79
2022/01/24 11:16:45;;;;;;;1.83;1.67;;;6.70;99.90;;;;;;7367626;19;20410;-79
2022/01/24 11:19:17;;;;;;;1.77;1.67;;;6.60;99.90;;;;;;7388105;19;20308;-78
2022/01/24 11:21:44;;;;;;;1.50;1.40;;;6.70;99.90;;;;;;7389409;19;20316;-77
2022/01/24 11:24:17;;;;;;;1.40;1.30;;;6.70;99.90;;;;;;7389454;19;20362;-78
2022/01/24 11:26:45;;;;;;;1.08;1.08;;;6.80;99.90;;;;;;7393288;19;20324;-77
2022/01/24 11:29:10;;;;;;;1.00;1.00;;;6.90;99.90;;;;;;7392089;19;20309;-77
2022/01/24 11:31:57;;;;;;;1.60;1.50;;;7.10;99.90;;;;;;7390540;19;20311;-78
2022/01/24 11:34:33;;;;;;;1.10;1.10;;;7.00;99.90;;;;;;7391092;19;20327;-79
2022/01/24 11:36:59;;;;;;;1.60;1.50;;;7.20;99.90;;;;;;7390989;19;20292;-77
2022/01/24 11:39:25;;;;;;;2.10;1.90;;;7.20;99.90;;;;;;7390464;19;20344;-79
2022/01/24 11:41:51;;;;;;;1.85;1.75;;;7.30;99.90;;;;;;7399233;19;20372;-78
2022/01/24 11:44:22;;;;;;;1.75;1.55;;;7.40;99.90;;;;;;7393078;19;20880;-77
2022/01/24 11:46:52;;;;;;;1.70;1.60;;;7.50;99.90;;;;;;7391951;19;20372;-78
2022/01/24 11:49:27;;;;;;;1.58;1.48;;;7.60;99.90;;;;;;7389601;19;20313;-79
2022/01/24 11:52:13;;;;;;;1.33;1.25;;;7.60;99.90;;;;;;7368377;19;20317;-79
2022/01/24 11:54:48;;;;;;;1.65;1.55;;;7.60;99.90;;;;;;7392016;19;20313;-80
2022/01/24 11:57:17;;;;;;;1.45;1.35;;;7.50;99.90;;;;;;7371319;19;20900;-78
2022/01/24 11:59:43;;;;;;;1.20;1.20;;;7.60;99.90;;;;;;7390326;19;21296;-78
2022/01/24 12:02:11;;;;;;;1.00;1.00;;;7.80;99.90;;;;;;7390215;19;20641;-78
2022/01/24 12:04:54;;;;;;;0.85;0.85;;;7.80;99.90;;;;;;7389341;19;20333;-78
2022/01/24 12:07:44;;;;;;;0.73;0.73;;;7.90;99.90;;;;;;7392159;19;20369;-79
2022/01/24 12:10:26;;;;;;;0.80;0.80;;;7.80;99.90;;;;;;7286043;19;2008914;-80
2022/01/24 12:13:00;;;;;;;0.70;0.70;;;7.80;99.90;;;;;;7298447;19;2009097;-79
2022/01/24 12:15:41;;;;;;;1.00;1.00;;;7.80;99.90;;;;;;7395977;19;20654;-79
2022/01/24 12:18:08;;;;;;;0.98;0.98;;;7.80;99.90;;;;;;7291727;19;2005524;-79
2022/01/24 12:20:41;;;;;;;1.42;1.33;;;7.80;99.90;;;;;;7392922;19;20348;-78
2022/01/24 12:23:19;;;;;;;1.40;1.30;;;7.80;99.90;;;;;;7386749;19;20395;-77
2022/01/24 12:25:57;;;;;;;1.08;1.00;;;7.60;99.90;;;;;;7388769;19;20900;-78
2022/01/24 12:28:24;;;;;;;1.00;1.00;;;7.40;99.90;;;;;;7386468;19;20340;-78
2022/01/24 12:31:08;;;;;;;1.20;1.10;;;7.30;99.90;;;;;;7386742;19;20316;-78
2022/01/24 12:33:38;;;;;;;1.30;1.20;;;7.10;99.90;;;;;;7385490;19;20322;-78
2022/01/24 12:36:06;;;;;;;1.60;1.50;;;7.20;99.90;;;;;;7385361;19;20333;-78
2022/01/24 12:38:49;;;;;;;1.60;1.50;;;7.20;99.90;;;;;;7389139;19;20844;-78
2022/01/24 12:41:18;;;;;;;1.15;1.15;;;7.30;99.90;;;;;;7283513;19;2011022;-79
2022/01/24 12:46:28;;;;;;;1.40;1.30;;;7.30;99.90;;;;;;7285944;19;2007395;-77
2022/01/24 12:48:54;;;;;;;1.10;1.10;;;7.20;99.90;;;;;;7387599;19;20875;-78
2022/01/24 12:51:21;;;;;;;1.13;0.90;;;7.20;99.90;;;;;;7388636;19;20408;-78
2022/01/24 12:53:48;;;;;;;0.90;0.90;;;7.30;99.90;;;;;;7386057;19;20320;-78
2022/01/24 12:56:15;;;;;;;1.23;1.17;;;7.20;99.90;;;;;;7386699;19;20338;-78
2022/01/24 12:58:43;;;;;;;2.00;1.70;;;6.90;99.90;;;;;;7386226;19;20312;-78
2022/01/24 13:01:26;;;;;;;1.90;1.80;;;6.60;99.90;;;;;;7387417;19;20885;-78
2022/01/24 13:03:58;;;;;;;1.70;1.60;;;6.60;99.90;;;;;;7282120;19;2007536;-78
2022/01/24 13:06:27;;;;;;;2.10;1.90;;;6.70;99.90;;;;;;7385991;19;20304;-78
2022/01/24 13:09:13;;;;;;;3.25;2.22;;;6.50;99.90;;;;;;7382023;19;20300;-78
2022/01/24 13:11:49;;;;;;;2.13;1.98;;;6.50;99.90;;;;;;7282738;19;2005935;-78
2022/01/24 13:14:22;;;;;;;1.70;1.60;;;6.50;99.90;;;;;;7284169;19;2008841;-80
2022/01/24 13:25:04;;;;;;;2.10;1.90;;;6.60;99.90;;;;;;7382181;19;20384;-79
2022/01/24 13:28:07;;;;;;;2.15;1.95;;;6.70;99.90;;;;;;7381800;19;20860;-80
2022/01/24 13:30:58;;;;;;;2.20;2.00;;;6.60;99.90;;;;;;7283155;19;2005688;-81
2022/01/24 13:33:25;;;;;;;2.10;2.00;;;6.40;99.90;;;;;;7277891;19;2007779;-82
2022/01/24 13:35:59;;;;;;;2.13;1.97;;;6.30;99.90;;;;;;7371107;19;20308;-79
2022/01/24 13:38:30;;;;;;;2.10;1.98;;;6.30;99.90;;;;;;7384357;19;20667;-79
2022/01/24 13:41:10;;;;;;;2.10;1.95;;;6.20;99.90;;;;;;7385293;19;20308;-78
2022/01/24 13:43:40;;;;;;;2.00;1.80;;;6.20;99.90;;;;;;7282870;19;2004436;-81
2022/01/24 13:46:16;;;;;;;2.20;2.00;;;6.20;99.90;;;;;;7397992;19;20417;-79
2022/01/24 13:48:50;;;;;;;1.83;1.73;;;6.20;99.90;;;;;;7395247;19;20321;-81
2022/01/24 13:51:25;;;;;;;1.97;1.80;;;6.30;99.90;;;;;;7388676;19;26226;-80
2022/01/24 13:53:57;;;;;;;1.80;1.70;;;6.40;99.90;;;;;;7386850;19;20395;-80
2022/01/24 13:56:42;;;;;;;1.95;1.85;;;6.60;99.90;;;;;;7387981;19;20349;-79
2022/01/24 13:59:12;;;;;;;2.40;2.20;;;6.60;99.90;;;;;;7385500;19;20416;-77
2022/01/24 14:01:51;;;;;;;2.53;2.33;;;6.60;99.90;;;;;;7384608;19;20367;-80
2022/01/24 14:04:32;;;;;;;2.50;2.30;;;6.50;99.90;;;;;;7382542;19;20372;-79
2022/01/24 14:07:24;;;;;;;2.50;2.30;;;6.60;99.90;;;;;;7394136;19;20344;-79
2022/01/24 14:10:03;;;;;;;3.90;2.42;;;6.50;99.90;;;;;;7286672;19;2009945;-79
2022/01/24 14:12:47;;;;;;;3.80;2.88;;;6.60;99.90;;;;;;7289959;19;2008190;-80
2022/01/24 14:15:42;;;;;;;2.88;2.67;;;6.60;99.90;;;;;;7283885;19;2004424;-78
2022/01/24 14:20:48;;;;;;;2.85;2.63;;;6.50;99.90;;;;;;7390557;19;20308;-78
2022/01/24 14:23:27;;;;;;;3.13;2.92;;;6.60;99.90;;;;;;7390355;19;20356;-78
2022/01/24 14:25:53;;;;;;;2.83;2.60;;;6.70;99.90;;;;;;7392176;19;20323;-79
2022/01/24 14:28:22;;;;;;;3.20;2.90;;;6.60;99.90;;;;;;7397117;19;20356;-77
2022/01/24 14:30:48;;;;;;;5.13;3.08;;;6.60;99.90;;;;;;7393373;19;20323;-79
2022/01/24 14:33:29;;;;;;;3.70;3.30;;;6.80;99.90;;;;;;7390693;19;20366;-78
2022/01/24 14:35:54;;;;;;;3.70;3.05;;;6.70;99.90;;;;;;7391733;19;20357;-78
2022/01/24 14:38:34;;;;;;;3.40;2.80;;;6.50;99.90;;;;;;7389776;19;20356;-78
2022/01/24 14:41:02;;;;;;;2.70;2.50;;;6.70;99.90;;;;;;7387980;19;20316;-78
2022/01/24 14:46:18;;;;;;;2.72;2.50;;;6.60;99.90;;;;;;7297618;19;2009000;-82
2022/01/24 14:48:45;;;;;;;2.63;2.42;;;6.50;99.90;;;;;;7393183;19;20312;-78
2022/01/24 14:51:10;;;;;;;2.85;2.65;;;6.50;99.90;;;;;;7390047;19;20325;-79
2022/01/24 14:53:36;;;;;;;3.30;3.03;;;6.80;99.90;;;;;;7388169;19;20357;-80
2022/01/24 14:56:02;;;;;;;3.58;3.15;;;6.60;99.90;;;;;;7387380;19;20345;-80
2022/01/24 14:58:28;;;;;;;2.93;2.70;;;6.50;99.90;;;;;;7390517;19;20385;-79
2022/01/24 15:00:55;;;;;;;2.65;2.45;;;6.40;99.90;;;;;;7386015;19;20333;-78
2022/01/24 15:03:21;;;;;;;2.80;2.60;;;6.50;99.90;;;;;;7385737;19;20425;-79